Time;durP1;ratioP1;P1;durP2;ratioP2;P2;SDS_P1;SDS_P2;PMS_P1;PMS_P2;Temp;Humidity;BMP_temperature;BMP_pressure;BME280_temperature;BME280_humidity;BME280_pressure;Samples;Min_cycle;Max_cycle;Signal;HPM_P1;HPM_P2
2021/07/03 00:01:30;;;;;;;5.97;3.25;;;;;;;;;;5092240;28;20062;-69
2021/07/03 00:03:56;;;;;;;14.70;3.33;;;;;;;;;;5093218;28;20049;-72
2021/07/03 00:06:23;;;;;;;6.07;2.75;;;;;;;;;;5093276;28;20020;-70
2021/07/03 00:08:49;;;;;;;6.85;2.88;;;;;;;;;;5091840;28;20031;-69
2021/07/03 00:11:15;;;;;;;4.10;3.42;;;;;;;;;;5091815;28;20028;-69
2021/07/03 00:13:41;;;;;;;4.38;3.10;;;;;;;;;;5093112;28;20020;-70
2021/07/03 00:16:08;;;;;;;7.28;3.33;;;;;;;;;;5091790;28;20123;-69
2021/07/03 00:18:34;;;;;;;3.42;3.13;;;;;;;;;;5091780;28;20062;-69
2021/07/03 00:21:01;;;;;;;7.68;3.20;;;;;;;;;;5093003;28;20379;-69
2021/07/03 00:23:28;;;;;;;6.32;2.90;;;;;;;;;;5092989;28;20028;-71
2021/07/03 00:25:54;;;;;;;5.40;3.42;;;;;;;;;;5092776;28;20418;-72
2021/07/03 00:28:20;;;;;;;4.75;3.40;;;;;;;;;;5092976;28;20031;-69
2021/07/03 00:30:46;;;;;;;4.88;3.33;;;;;;;;;;5092978;28;20162;-71
2021/07/03 00:33:12;;;;;;;3.75;2.90;;;;;;;;;;5092922;28;20391;-69
2021/07/03 00:35:39;;;;;;;3.58;3.28;;;;;;;;;;5096843;28;20012;-69
2021/07/03 00:38:05;;;;;;;6.93;3.55;;;;;;;;;;5115427;28;20051;-68
2021/07/03 00:40:31;;;;;;;3.40;2.90;;;;;;;;;;5115280;28;20046;-68
2021/07/03 00:42:58;;;;;;;6.20;3.50;;;;;;;;;;5133774;28;20107;-72
2021/07/03 00:45:24;;;;;;;9.07;3.40;;;;;;;;;;5133753;28;20011;-69
2021/07/03 00:47:51;;;;;;;6.03;3.38;;;;;;;;;;5133752;28;20054;-68
2021/07/03 00:50:17;;;;;;;5.25;3.88;;;;;;;;;;5133679;28;20076;-69
2021/07/03 00:52:44;;;;;;;6.30;3.47;;;;;;;;;;5115300;28;20503;-69
2021/07/03 00:55:10;;;;;;;4.97;4.13;;;;;;;;;;5133630;28;20126;-67
2021/07/03 00:57:38;;;;;;;7.13;3.60;;;;;;;;;;5115156;28;20019;-70
2021/07/03 01:00:05;;;;;;;5.25;3.25;;;;;;;;;;5133658;28;20080;-69
2021/07/03 01:02:31;;;;;;;7.82;3.88;;;;;;;;;;5133535;28;20030;-69
2021/07/03 01:04:57;;;;;;;9.75;3.70;;;;;;;;;;5133815;28;20118;-69
2021/07/03 01:07:24;;;;;;;4.47;3.40;;;;;;;;;;5115044;28;20023;-69
2021/07/03 01:09:50;;;;;;;7.22;3.80;;;;;;;;;;5133503;28;20023;-70
2021/07/03 01:12:16;;;;;;;5.93;3.72;;;;;;;;;;5116680;27;20417;-70
2021/07/03 01:14:43;;;;;;;7.32;3.97;;;;;;;;;;5137251;27;20015;-70
2021/07/03 01:17:10;;;;;;;5.30;3.63;;;;;;;;;;5136907;27;20449;-71
2021/07/03 01:19:36;;;;;;;4.43;3.70;;;;;;;;;;5137204;27;20111;-71
2021/07/03 01:22:05;;;;;;;4.22;3.58;;;;;;;;;;5118272;27;20025;-71
2021/07/03 01:24:31;;;;;;;8.73;4.32;;;;;;;;;;5137072;27;20031;-70
2021/07/03 01:26:57;;;;;;;8.32;3.38;;;;;;;;;;5118629;27;20023;-71
2021/07/03 01:29:25;;;;;;;4.57;3.50;;;;;;;;;;5118501;27;20034;-71
2021/07/03 01:31:52;;;;;;;3.50;3.20;;;;;;;;;;5136994;27;20031;-71
2021/07/03 01:34:20;;;;;;;5.57;3.55;;;;;;;;;;5118598;27;20409;-71
2021/07/03 01:36:46;;;;;;;7.15;4.38;;;;;;;;;;5136683;27;20128;-71
2021/07/03 01:39:13;;;;;;;6.65;3.70;;;;;;;;;;5118609;27;20015;-71
2021/07/03 01:41:39;;;;;;;9.25;3.53;;;;;;;;;;5118554;27;20031;-71
2021/07/03 01:44:06;;;;;;;6.15;4.28;;;;;;;;;;5118563;27;20024;-71
2021/07/03 01:46:32;;;;;;;5.63;4.05;;;;;;;;;;5137032;27;20115;-72
2021/07/03 01:49:02;;;;;;;8.25;4.28;;;;;;;;;;5136998;27;20027;-71
2021/07/03 01:51:28;;;;;;;5.95;4.35;;;;;;;;;;5118537;27;20386;-71
2021/07/03 01:53:55;;;;;;;7.53;4.30;;;;;;;;;;5118120;27;20451;-70
2021/07/03 01:56:21;;;;;;;5.03;4.05;;;;;;;;;;5136270;27;20355;-70
2021/07/03 01:58:47;;;;;;;4.65;3.97;;;;;;;;;;5118027;27;20114;-71
2021/07/03 02:01:13;;;;;;;7.72;3.85;;;;;;;;;;5136377;27;20081;-71
2021/07/03 02:03:40;;;;;;;5.38;4.00;;;;;;;;;;5136412;27;20058;-71
2021/07/03 02:06:06;;;;;;;9.50;3.42;;;;;;;;;;5136605;27;20114;-69
2021/07/03 02:08:32;;;;;;;5.25;3.83;;;;;;;;;;5117864;27;20055;-70
2021/07/03 02:10:59;;;;;;;7.32;4.10;;;;;;;;;;5117480;27;20027;-71
2021/07/03 02:13:26;;;;;;;4.88;3.80;;;;;;;;;;5136183;27;20019;-71
2021/07/03 02:15:52;;;;;;;5.55;4.00;;;;;;;;;;5136166;27;20027;-71
2021/07/03 02:18:19;;;;;;;6.53;3.75;;;;;;;;;;5136040;27;20019;-70
2021/07/03 02:20:45;;;;;;;6.13;4.05;;;;;;;;;;5135961;27;20057;-70
2021/07/03 02:23:11;;;;;;;4.35;3.63;;;;;;;;;;5116616;28;20035;-70
2021/07/03 02:25:38;;;;;;;8.00;4.03;;;;;;;;;;5117484;27;20111;-70
2021/07/03 02:28:04;;;;;;;6.90;3.90;;;;;;;;;;5136127;27;20098;-70
2021/07/03 02:30:31;;;;;;;6.47;4.45;;;;;;;;;;5117331;27;20059;-70
2021/07/03 02:32:58;;;;;;;7.38;4.05;;;;;;;;;;5135739;27;20455;-70
2021/07/03 02:35:24;;;;;;;5.70;4.03;;;;;;;;;;5117024;27;20098;-70
2021/07/03 02:37:51;;;;;;;6.13;3.85;;;;;;;;;;5117527;27;20533;-70
2021/07/03 02:40:18;;;;;;;5.55;4.00;;;;;;;;;;5135317;27;20098;-70
2021/07/03 02:42:44;;;;;;;6.13;4.22;;;;;;;;;;5135510;27;20020;-71
2021/07/03 02:45:12;;;;;;;5.30;4.15;;;;;;;;;;5117029;27;20107;-70
2021/07/03 02:47:39;;;;;;;7.45;3.85;;;;;;;;;;5135812;27;20118;-71
2021/07/03 02:50:07;;;;;;;15.27;4.05;;;;;;;;;;5116966;27;20494;-70
2021/07/03 02:52:33;;;;;;;5.18;3.83;;;;;;;;;;5135332;27;20034;-71
2021/07/03 02:54:59;;;;;;;4.38;3.50;;;;;;;;;;5135252;27;20102;-71
2021/07/03 02:57:26;;;;;;;6.63;3.60;;;;;;;;;;5135297;27;20052;-71
2021/07/03 02:59:52;;;;;;;6.85;3.88;;;;;;;;;;5135233;27;20027;-70
2021/07/03 03:02:18;;;;;;;5.65;3.63;;;;;;;;;;5135122;27;20031;-71
2021/07/03 03:04:44;;;;;;;10.45;4.07;;;;;;;;;;5116729;27;20118;-71
2021/07/03 03:07:11;;;;;;;6.40;3.83;;;;;;;;;;5135082;27;20021;-71
2021/07/03 03:09:37;;;;;;;5.07;3.65;;;;;;;;;;5135025;27;20027;-71
2021/07/03 03:12:04;;;;;;;4.50;3.85;;;;;;;;;;5135014;27;20780;-69
2021/07/03 03:14:30;;;;;;;4.75;3.70;;;;;;;;;;5116492;27;20114;-71
2021/07/03 03:16:56;;;;;;;4.78;3.53;;;;;;;;;;5134994;27;20106;-71
2021/07/03 03:19:22;;;;;;;6.50;4.10;;;;;;;;;;5116423;27;20493;-70
2021/07/03 03:21:50;;;;;;;7.93;3.53;;;;;;;;;;5134699;27;20031;-70
2021/07/03 03:24:16;;;;;;;5.20;3.92;;;;;;;;;;5134773;27;20034;-71
2021/07/03 03:26:43;;;;;;;5.72;3.72;;;;;;;;;;5134709;27;20030;-70
2021/07/03 03:29:09;;;;;;;4.03;3.22;;;;;;;;;;5116234;27;20034;-70
2021/07/03 03:31:35;;;;;;;8.35;3.75;;;;;;;;;;5134919;27;20043;-70
2021/07/03 03:34:02;;;;;;;6.07;4.18;;;;;;;;;;5134531;27;20467;-70
2021/07/03 03:36:28;;;;;;;6.10;3.80;;;;;;;;;;5102814;28;20138;-71
2021/07/03 03:38:55;;;;;;;7.88;3.58;;;;;;;;;;5093623;28;20020;-71
2021/07/03 03:41:21;;;;;;;5.22;3.70;;;;;;;;;;5092157;28;20028;-71
2021/07/03 03:43:47;;;;;;;5.60;4.15;;;;;;;;;;5093536;28;20107;-71
2021/07/03 03:46:14;;;;;;;6.00;3.60;;;;;;;;;;5093562;28;20054;-71
2021/07/03 03:48:40;;;;;;;6.07;3.25;;;;;;;;;;5093185;28;20464;-71
2021/07/03 03:51:06;;;;;;;7.32;3.78;;;;;;;;;;5093428;28;20119;-71
2021/07/03 03:53:32;;;;;;;4.38;3.72;;;;;;;;;;5092088;28;20024;-71
2021/07/03 03:55:58;;;;;;;5.22;3.90;;;;;;;;;;5092005;28;20126;-72
2021/07/03 03:58:25;;;;;;;4.22;3.83;;;;;;;;;;5093417;28;20024;-72
2021/07/03 04:00:51;;;;;;;4.68;3.83;;;;;;;;;;5091822;28;20028;-70
2021/07/03 04:03:17;;;;;;;4.00;3.60;;;;;;;;;;5093235;28;20066;-70
2021/07/03 04:05:43;;;;;;;4.50;3.60;;;;;;;;;;5093294;28;20046;-70
2021/07/03 04:08:11;;;;;;;3.75;3.35;;;;;;;;;;5091863;28;20111;-70
2021/07/03 04:10:38;;;;;;;4.38;3.33;;;;;;;;;;5093229;28;20495;-70
2021/07/03 04:13:04;;;;;;;3.65;3.10;;;;;;;;;;5093374;28;20524;-70
2021/07/03 04:15:30;;;;;;;4.57;3.33;;;;;;;;;;5093111;28;20025;-71
2021/07/03 04:17:56;;;;;;;3.50;3.15;;;;;;;;;;5093176;28;20028;-70
2021/07/03 04:20:23;;;;;;;4.50;3.33;;;;;;;;;;5093074;28;20103;-70
2021/07/03 04:22:49;;;;;;;4.75;3.28;;;;;;;;;;5093088;28;20032;-71
2021/07/03 04:25:15;;;;;;;4.28;3.00;;;;;;;;;;5093033;28;20032;-70
2021/07/03 04:27:42;;;;;;;3.20;2.90;;;;;;;;;;5093074;28;20031;-70
2021/07/03 04:30:09;;;;;;;2.55;2.13;;;;;;;;;;5091699;28;20031;-69
2021/07/03 04:32:36;;;;;;;4.07;2.75;;;;;;;;;;5091694;28;20040;-69
2021/07/03 04:35:04;;;;;;;2.67;2.45;;;;;;;;;;5093228;28;20032;-70
2021/07/03 04:37:30;;;;;;;6.10;3.00;;;;;;;;;;5129442;28;20054;-70
2021/07/03 04:39:56;;;;;;;5.53;2.78;;;;;;;;;;5133589;28;20387;-70
2021/07/03 04:42:22;;;;;;;4.88;2.78;;;;;;;;;;5133739;28;20070;-70
2021/07/03 04:44:48;;;;;;;2.70;2.47;;;;;;;;;;5133937;28;20161;-71
2021/07/03 04:47:15;;;;;;;3.20;2.63;;;;;;;;;;5117010;27;20015;-70
2021/07/03 04:49:41;;;;;;;6.50;2.90;;;;;;;;;;5138077;27;20030;-70
2021/07/03 04:52:07;;;;;;;3.60;2.50;;;;;;;;;;5119016;27;20118;-70
2021/07/03 04:54:34;;;;;;;2.78;2.58;;;;;;;;;;5137734;27;20022;-70
2021/07/03 04:57:12;;;;;;;3.20;2.28;;;;;;;;;;5137645;27;20046;-70
2021/07/03 04:59:42;;;;;;;5.70;2.28;;;;;;;;;;5137661;27;20015;-71
2021/07/03 05:02:09;;;;;;;2.33;2.13;;;;;;;;;;5137136;27;20383;-70
2021/07/03 05:04:36;;;;;;;5.75;2.20;;;;;;;;;;5137776;27;20114;-71
2021/07/03 05:07:03;;;;;;;6.13;2.78;;;;;;;;;;5118979;27;20049;-70
2021/07/03 05:09:30;;;;;;;2.80;2.17;;;;;;;;;;5137671;27;20102;-71
2021/07/03 05:11:56;;;;;;;4.18;2.33;;;;;;;;;;5137387;27;20031;-72
2021/07/03 05:14:22;;;;;;;2.35;2.10;;;;;;;;;;5118836;27;20115;-71
2021/07/03 05:16:48;;;;;;;4.10;1.95;;;;;;;;;;5137220;27;20084;-71
2021/07/03 05:19:15;;;;;;;2.95;2.30;;;;;;;;;;5137205;27;20431;-70
2021/07/03 05:21:41;;;;;;;3.03;2.05;;;;;;;;;;5118612;27;20019;-71
2021/07/03 05:24:08;;;;;;;2.13;1.92;;;;;;;;;;5137141;27;20015;-71
2021/07/03 05:26:34;;;;;;;2.75;2.45;;;;;;;;;;5137103;27;20031;-71
2021/07/03 05:29:01;;;;;;;4.70;2.22;;;;;;;;;;5137074;27;20530;-71
2021/07/03 05:31:27;;;;;;;2.58;2.38;;;;;;;;;;5118388;27;20372;-71
2021/07/03 05:33:53;;;;;;;6.78;2.97;;;;;;;;;;5136855;27;20459;-72
2021/07/03 05:36:20;;;;;;;3.22;2.33;;;;;;;;;;5136423;27;20082;-72
2021/07/03 05:38:47;;;;;;;3.35;2.30;;;;;;;;;;5118272;27;20475;-71
2021/07/03 05:41:14;;;;;;;2.92;2.53;;;;;;;;;;5118244;27;20031;-70
2021/07/03 05:43:40;;;;;;;4.65;2.95;;;;;;;;;;5136845;27;20085;-70
2021/07/03 05:46:07;;;;;;;3.50;2.78;;;;;;;;;;5136692;27;20022;-70
2021/07/03 05:48:37;;;;;;;2.30;2.10;;;;;;;;;;5136591;27;20375;-70
2021/07/03 05:51:03;;;;;;;2.45;2.25;;;;;;;;;;5118186;27;20049;-69
2021/07/03 05:53:30;;;;;;;2.65;2.33;;;;;;;;;;5136220;27;20383;-69
2021/07/03 05:55:56;;;;;;;2.58;2.38;;;;;;;;;;5136784;27;20115;-68
2021/07/03 05:58:23;;;;;;;4.03;2.03;;;;;;;;;;5136364;27;20023;-68
2021/07/03 06:00:49;;;;;;;3.47;2.17;;;;;;;;;;5117798;27;20114;-71
2021/07/03 06:03:15;;;;;;;3.55;2.60;;;;;;;;;;5136355;27;20023;-70
2021/07/03 06:05:41;;;;;;;2.88;2.53;;;;;;;;;;5117867;27;20474;-69
2021/07/03 06:08:08;;;;;;;2.35;1.85;;;;;;;;;;5117879;27;20498;-69
2021/07/03 06:10:34;;;;;;;2.28;2.08;;;;;;;;;;5136223;27;20027;-71
2021/07/03 06:13:00;;;;;;;4.60;2.80;;;;;;;;;;5135945;27;20364;-70
2021/07/03 06:15:27;;;;;;;4.25;2.67;;;;;;;;;;5136117;27;20019;-69
2021/07/03 06:17:53;;;;;;;3.35;2.40;;;;;;;;;;5117645;27;20030;-70
2021/07/03 06:20:20;;;;;;;2.88;2.50;;;;;;;;;;5136342;27;20075;-69
2021/07/03 06:22:46;;;;;;;6.07;2.63;;;;;;;;;;5136235;27;20076;-69
2021/07/03 06:25:13;;;;;;;3.80;2.55;;;;;;;;;;5117350;27;20023;-69
2021/07/03 06:27:39;;;;;;;3.08;2.22;;;;;;;;;;5135957;27;20026;-71
2021/07/03 06:30:06;;;;;;;3.42;2.40;;;;;;;;;;5135526;27;20020;-71
2021/07/03 06:32:33;;;;;;;4.07;2.53;;;;;;;;;;5135637;27;20027;-71
2021/07/03 06:34:59;;;;;;;6.32;2.65;;;;;;;;;;5135716;27;20471;-68
2021/07/03 06:37:25;;;;;;;8.10;3.38;;;;;;;;;;5135936;27;20130;-72
2021/07/03 06:39:51;;;;;;;2.40;2.20;;;;;;;;;;5136741;27;20026;-71
2021/07/03 06:42:19;;;;;;;3.45;2.20;;;;;;;;;;5117869;27;20429;-71
2021/07/03 06:44:45;;;;;;;2.33;2.13;;;;;;;;;;5136918;27;20027;-71
2021/07/03 06:47:13;;;;;;;3.65;2.60;;;;;;;;;;5116707;27;20027;-70
2021/07/03 06:49:39;;;;;;;3.67;2.88;;;;;;;;;;5117268;27;20439;-70
2021/07/03 06:52:05;;;;;;;4.85;3.10;;;;;;;;;;5135876;27;20027;-71
2021/07/03 06:54:31;;;;;;;2.40;2.20;;;;;;;;;;5117740;27;20118;-70
2021/07/03 06:56:58;;;;;;;2.40;2.22;;;;;;;;;;5117938;27;20030;-70
2021/07/03 06:59:30;;;;;;;3.80;2.70;;;;;;;;;;5135890;27;20047;-70
2021/07/03 07:01:57;;;;;;;5.22;2.17;;;;;;;;;;5116736;27;20658;-69
2021/07/03 07:04:23;;;;;;;2.70;2.50;;;;;;;;;;5135120;27;20073;-71
2021/07/03 07:06:50;;;;;;;2.80;2.60;;;;;;;;;;5135114;27;20452;-70
2021/07/03 07:09:16;;;;;;;5.03;2.75;;;;;;;;;;5116130;27;20117;-72
2021/07/03 07:11:43;;;;;;;3.05;2.80;;;;;;;;;;5135007;27;20023;-72
2021/07/03 07:14:13;;;;;;;3.97;2.80;;;;;;;;;;5134702;27;20110;-71
2021/07/03 07:16:40;;;;;;;2.50;2.33;;;;;;;;;;5134923;27;20016;-68
2021/07/03 07:19:06;;;;;;;3.40;2.28;;;;;;;;;;5134417;27;20060;-70
2021/07/03 07:21:33;;;;;;;4.65;2.45;;;;;;;;;;5115610;27;20034;-70
2021/07/03 07:23:59;;;;;;;2.70;2.40;;;;;;;;;;5134047;27;20114;-71
2021/07/03 07:26:25;;;;;;;3.08;2.30;;;;;;;;;;5116279;27;20464;-73
2021/07/03 07:28:51;;;;;;;5.80;2.80;;;;;;;;;;5116230;27;20023;-71
2021/07/03 07:31:18;;;;;;;3.30;2.85;;;;;;;;;;5134959;27;20098;-71
2021/07/03 07:33:45;;;;;;;3.65;3.25;;;;;;;;;;5116221;27;20106;-71
2021/07/03 07:36:12;;;;;;;3.42;3.13;;;;;;;;;;5134230;27;20036;-71
2021/07/03 07:38:38;;;;;;;6.13;3.03;;;;;;;;;;5134568;27;20023;-68
2021/07/03 07:41:05;;;;;;;2.47;2.28;;;;;;;;;;5134453;27;20023;-69
2021/07/03 07:43:31;;;;;;;3.35;2.90;;;;;;;;;;5134464;27;20118;-72
2021/07/03 07:45:57;;;;;;;3.33;2.63;;;;;;;;;;5134392;27;20019;-71
2021/07/03 07:48:26;;;;;;;3.38;2.47;;;;;;;;;;5116015;27;20102;-71
2021/07/03 07:50:56;;;;;;;6.60;2.58;;;;;;;;;;5115951;27;20026;-71
2021/07/03 07:53:22;;;;;;;15.02;3.53;;;;;;;;;;5134253;27;20026;-72
2021/07/03 07:55:48;;;;;;;8.73;4.07;;;;;;;;;;5115738;27;20038;-71
2021/07/03 07:58:15;;;;;;;3.15;2.80;;;;;;;;;;5134627;27;20110;-71
2021/07/03 08:00:41;;;;;;;2.50;2.30;;;;;;;;;;5134082;27;20053;-71
2021/07/03 08:03:08;;;;;;;5.85;3.13;;;;;;;;;;5115675;27;20474;-72
2021/07/03 08:05:35;;;;;;;8.88;3.00;;;;;;;;;;5134077;27;20020;-72
2021/07/03 08:08:01;;;;;;;3.42;2.90;;;;;;;;;;5115643;28;20132;-71
2021/07/03 08:10:27;;;;;;;3.85;2.92;;;;;;;;;;5134013;27;20019;-71
2021/07/03 08:12:54;;;;;;;3.22;2.95;;;;;;;;;;5115262;28;20043;-71
2021/07/03 08:15:21;;;;;;;3.00;2.35;;;;;;;;;;5133980;28;20080;-70
2021/07/03 08:17:47;;;;;;;3.42;2.85;;;;;;;;;;5133998;28;20100;-71
2021/07/03 08:20:17;;;;;;;2.95;2.60;;;;;;;;;;5115237;28;20107;-72
2021/07/03 08:22:44;;;;;;;3.20;2.90;;;;;;;;;;5118221;27;20147;-70
2021/07/03 08:25:11;;;;;;;3.42;3.15;;;;;;;;;;5138287;27;20054;-69
2021/07/03 08:27:38;;;;;;;3.60;2.53;;;;;;;;;;5119741;27;20031;-74
2021/07/03 08:30:05;;;;;;;2.72;2.53;;;;;;;;;;5119386;27;20023;-71
2021/07/03 08:32:31;;;;;;;2.92;2.65;;;;;;;;;;5136201;27;20231;-70
2021/07/03 08:34:57;;;;;;;4.70;2.67;;;;;;;;;;5137385;27;20023;-70
2021/07/03 08:37:24;;;;;;;3.22;2.92;;;;;;;;;;5137134;27;20095;-71
2021/07/03 08:39:50;;;;;;;4.60;3.08;;;;;;;;;;5117569;27;20116;-71
2021/07/03 08:42:16;;;;;;;3.08;2.78;;;;;;;;;;5137863;27;20054;-67
2021/07/03 08:44:46;;;;;;;3.08;2.85;;;;;;;;;;5137422;27;20495;-70
2021/07/03 08:47:13;;;;;;;2.63;2.42;;;;;;;;;;5137796;27;20020;-69
2021/07/03 08:49:39;;;;;;;3.47;2.92;;;;;;;;;;5137728;27;20031;-68
2021/07/03 08:52:06;;;;;;;4.07;3.20;;;;;;;;;;5119319;27;20118;-72
2021/07/03 08:54:32;;;;;;;3.60;2.65;;;;;;;;;;5137864;27;20079;-68
2021/07/03 08:57:00;;;;;;;3.78;2.80;;;;;;;;;;5137660;27;20043;-71
2021/07/03 08:59:29;;;;;;;3.65;2.35;;;;;;;;;;5119056;27;20023;-68
2021/07/03 09:01:57;;;;;;;3.08;2.88;;;;;;;;;;5135463;27;20016;-71
2021/07/03 09:04:39;;;;;;;3.08;2.75;;;;;;;;;;5118923;27;20019;-68
2021/07/03 09:07:11;;;;;;;2.92;2.72;;;;;;;;;;5136607;27;20114;-69
2021/07/03 09:09:38;;;;;;;4.05;2.40;;;;;;;;;;5137247;27;20022;-69
2021/07/03 09:12:04;;;;;;;6.50;2.50;;;;;;;;;;5118495;27;20349;-69
2021/07/03 09:14:30;;;;;;;2.65;2.33;;;;;;;;;;5118684;27;20496;-69
2021/07/03 09:16:57;;;;;;;2.33;2.22;;;;;;;;;;5118820;27;20076;-68
2021/07/03 09:19:30;;;;;;;2.88;2.53;;;;;;;;;;5136999;27;20098;-71
2021/07/03 09:21:57;;;;;;;3.17;2.55;;;;;;;;;;5137257;27;20031;-69
2021/07/03 09:24:30;;;;;;;3.65;2.25;;;;;;;;;;5137137;27;20066;-70
2021/07/03 09:27:00;;;;;;;3.10;2.40;;;;;;;;;;5137168;27;20012;-70
2021/07/03 09:29:27;;;;;;;5.20;2.70;;;;;;;;;;5118642;27;20023;-71
2021/07/03 09:31:53;;;;;;;2.88;2.33;;;;;;;;;;5137029;27;20482;-69
2021/07/03 09:34:21;;;;;;;2.65;2.38;;;;;;;;;;5117980;27;20027;-68
2021/07/03 09:36:47;;;;;;;3.30;2.60;;;;;;;;;;5136687;27;20527;-69
2021/07/03 09:39:22;;;;;;;2.28;2.15;;;;;;;;;;5137179;27;20478;-70
2021/07/03 09:41:49;;;;;;;2.10;2.00;;;;;;;;;;5118260;27;20546;-70
2021/07/03 09:44:15;;;;;;;4.70;2.70;;;;;;;;;;5136742;27;20019;-71
2021/07/03 09:46:50;;;;;;;3.65;1.90;;;;;;;;;;5136689;27;20046;-70
2021/07/03 09:49:25;;;;;;;3.97;2.55;;;;;;;;;;5136736;27;20042;-71
2021/07/03 09:51:52;;;;;;;2.40;2.20;;;;;;;;;;5118098;27;20371;-70
2021/07/03 09:54:19;;;;;;;4.22;2.10;;;;;;;;;;5136614;27;20023;-69
2021/07/03 09:56:46;;;;;;;2.70;2.47;;;;;;;;;;5118064;27;20532;-69
2021/07/03 09:59:12;;;;;;;3.58;2.13;;;;;;;;;;5136721;27;20110;-70
2021/07/03 10:01:40;;;;;;;2.13;2.00;;;;;;;;;;5136496;27;20031;-71
2021/07/03 10:04:07;;;;;;;5.60;1.77;;;;;;;;;;5115315;27;20162;-68
2021/07/03 10:06:43;;;;;;;2.00;1.75;;;;;;;;;;5135930;27;20522;-70
2021/07/03 10:09:28;;;;;;;2.08;1.88;;;;;;;;;;5136323;27;20030;-68
2021/07/03 10:11:57;;;;;;;1.70;1.60;;;;;;;;;;5136585;27;20424;-70
2021/07/03 10:14:23;;;;;;;1.92;1.83;;;;;;;;;;5136275;27;20019;-70
2021/07/03 10:17:00;;;;;;;2.30;2.15;;;;;;;;;;5117867;27;20077;-68
2021/07/03 10:19:30;;;;;;;2.33;1.80;;;;;;;;;;5117704;27;20539;-67
2021/07/03 10:22:10;;;;;;;3.20;2.20;;;;;;;;;;5117677;27;20140;-66
2021/07/03 10:24:41;;;;;;;3.53;1.80;;;;;;;;;;5136060;27;20038;-66
2021/07/03 10:27:19;;;;;;;2.38;2.17;;;;;;;;;;5135699;27;20383;-66
2021/07/03 10:29:47;;;;;;;4.85;1.90;;;;;;;;;;5117517;27;20114;-66
2021/07/03 10:32:21;;;;;;;1.50;1.45;;;;;;;;;;5117127;27;20023;-68
2021/07/03 10:34:48;;;;;;;1.70;1.60;;;;;;;;;;5135660;27;20019;-66
2021/07/03 10:37:17;;;;;;;1.80;1.70;;;;;;;;;;5135178;27;20047;-67
2021/07/03 10:39:44;;;;;;;2.45;1.70;;;;;;;;;;5135712;27;20023;-68
2021/07/03 10:42:11;;;;;;;1.65;1.55;;;;;;;;;;5134937;27;20034;-67
2021/07/03 10:44:39;;;;;;;1.75;1.65;;;;;;;;;;5134624;27;20034;-66
2021/07/03 10:47:06;;;;;;;2.13;1.88;;;;;;;;;;5116997;27;20023;-69
2021/07/03 10:49:35;;;;;;;1.88;1.77;;;;;;;;;;5135373;27;20020;-68
2021/07/03 10:52:09;;;;;;;2.00;1.90;;;;;;;;;;5116850;27;20027;-69
2021/07/03 10:54:36;;;;;;;2.38;2.17;;;;;;;;;;5135388;27;20027;-69
2021/07/03 10:57:12;;;;;;;3.42;1.90;;;;;;;;;;5135294;27;20015;-65
2021/07/03 10:59:40;;;;;;;2.40;1.90;;;;;;;;;;5117037;27;20788;-70
2021/07/03 11:02:11;;;;;;;2.53;1.85;;;;;;;;;;5116668;27;20023;-66
2021/07/03 11:04:50;;;;;;;2.45;2.13;;;;;;;;;;5135104;27;20102;-68
2021/07/03 11:07:20;;;;;;;4.10;1.83;;;;;;;;;;5135042;27;20524;-67
2021/07/03 11:09:47;;;;;;;2.85;1.52;;;;;;;;;;5135141;27;20047;-68
2021/07/03 11:12:13;;;;;;;1.80;1.58;;;;;;;;;;5134975;27;20065;-67
2021/07/03 11:14:40;;;;;;;8.90;1.67;;;;;;;;;;5116528;27;20027;-69
2021/07/03 11:17:06;;;;;;;1.60;1.50;;;;;;;;;;5134871;27;20029;-66
2021/07/03 11:19:33;;;;;;;1.60;1.50;;;;;;;;;;5116432;27;20374;-69
2021/07/03 11:22:09;;;;;;;1.73;1.40;;;;;;;;;;5116248;27;20478;-68
2021/07/03 11:24:46;;;;;;;2.60;1.60;;;;;;;;;;5116278;27;20031;-68
2021/07/03 11:27:24;;;;;;;2.08;1.92;;;;;;;;;;5116167;27;20023;-67
2021/07/03 11:29:50;;;;;;;1.77;1.67;;;;;;;;;;5134724;27;20019;-70
2021/07/03 11:32:16;;;;;;;3.00;1.90;;;;;;;;;;5134698;27;20058;-65
2021/07/03 11:34:50;;;;;;;1.95;1.70;;;;;;;;;;5134575;27;20049;-70
2021/07/03 11:37:24;;;;;;;1.77;1.67;;;;;;;;;;5134536;27;20357;-69
2021/07/03 11:39:54;;;;;;;3.50;1.60;;;;;;;;;;5134090;27;20485;-68
2021/07/03 11:42:31;;;;;;;3.35;1.50;;;;;;;;;;5128905;27;20076;-69
2021/07/03 11:45:20;;;;;;;1.55;1.45;;;;;;;;;;5093274;27;20062;-70
2021/07/03 11:47:50;;;;;;;1.85;1.73;;;;;;;;;;5134404;27;20019;-69
2021/07/03 11:50:36;;;;;;;6.22;2.00;;;;;;;;;;5116297;27;20380;-68
2021/07/03 11:53:03;;;;;;;3.22;1.80;;;;;;;;;;5133278;27;20023;-68
2021/07/03 11:55:44;;;;;;;2.78;1.95;;;;;;;;;;5115386;27;20033;-67
2021/07/03 11:58:31;;;;;;;2.72;1.50;;;;;;;;;;5128369;27;20033;-68
2021/07/03 12:00:58;;;;;;;1.65;1.55;;;;;;;;;;5115032;27;20382;-71
2021/07/03 12:03:32;;;;;;;1.52;1.42;;;;;;;;;;5133985;27;20058;-70
2021/07/03 12:05:59;;;;;;;1.35;1.30;;;;;;;;;;5134107;27;20095;-71
2021/07/03 12:08:33;;;;;;;3.55;1.60;;;;;;;;;;5134095;27;20027;-72
2021/07/03 12:11:00;;;;;;;1.75;1.65;;;;;;;;;;5134167;27;20054;-69
2021/07/03 12:13:28;;;;;;;1.95;1.77;;;;;;;;;;5115548;27;20031;-71
2021/07/03 12:15:54;;;;;;;4.30;2.08;;;;;;;;;;5133964;27;20012;-69
2021/07/03 12:18:25;;;;;;;2.20;1.80;;;;;;;;;;5115623;28;20474;-69
2021/07/03 12:21:02;;;;;;;2.53;1.58;;;;;;;;;;5133701;28;20561;-68
2021/07/03 12:23:28;;;;;;;1.90;1.80;;;;;;;;;;5115622;28;20022;-69
2021/07/03 12:25:54;;;;;;;2.65;2.03;;;;;;;;;;5115481;28;20398;-72
2021/07/03 12:28:21;;;;;;;1.80;1.70;;;;;;;;;;5115490;28;20110;-68
2021/07/03 12:30:47;;;;;;;2.20;1.70;;;;;;;;;;5115551;28;20163;-68
2021/07/03 12:33:14;;;;;;;2.78;1.77;;;;;;;;;;5133843;28;20066;-68
2021/07/03 12:35:41;;;;;;;4.18;1.50;;;;;;;;;;5133560;28;20026;-70
2021/07/03 12:38:09;;;;;;;3.33;1.60;;;;;;;;;;5115481;28;20039;-69
2021/07/03 12:40:43;;;;;;;1.50;1.40;;;;;;;;;;5133888;28;20023;-69
2021/07/03 12:43:10;;;;;;;2.80;2.17;;;;;;;;;;5133690;28;20023;-69
2021/07/03 12:45:36;;;;;;;4.82;2.00;;;;;;;;;;5115335;28;20421;-70
2021/07/03 12:48:16;;;;;;;1.70;1.60;;;;;;;;;;5115304;28;20023;-70
2021/07/03 12:50:46;;;;;;;3.85;1.67;;;;;;;;;;5133767;28;20015;-68
2021/07/03 12:53:16;;;;;;;3.60;1.80;;;;;;;;;;5133401;28;20482;-68
2021/07/03 12:55:44;;;;;;;3.80;1.50;;;;;;;;;;5133671;28;20019;-68
2021/07/03 12:58:26;;;;;;;3.40;1.83;;;;;;;;;;5133941;28;20019;-67
2021/07/03 13:00:52;;;;;;;4.80;1.70;;;;;;;;;;5133589;28;20098;-69
2021/07/03 13:03:19;;;;;;;2.35;2.15;;;;;;;;;;5133525;28;20058;-69
2021/07/03 13:05:49;;;;;;;2.10;1.90;;;;;;;;;;5133564;28;20076;-72
2021/07/03 13:08:16;;;;;;;3.33;1.77;;;;;;;;;;5116858;27;20390;-69
2021/07/03 13:10:42;;;;;;;2.33;1.52;;;;;;;;;;5137544;27;20023;-69
2021/07/03 13:13:08;;;;;;;1.80;1.52;;;;;;;;;;5137070;27;20476;-68
2021/07/03 13:15:35;;;;;;;3.22;1.70;;;;;;;;;;5118881;27;20360;-71
2021/07/03 13:18:01;;;;;;;4.25;1.75;;;;;;;;;;5137355;27;20023;-69
2021/07/03 13:20:27;;;;;;;2.10;1.90;;;;;;;;;;5137232;27;20127;-70
2021/07/03 13:22:53;;;;;;;2.78;2.58;;;;;;;;;;5137207;27;20035;-71
2021/07/03 13:25:20;;;;;;;3.25;1.75;;;;;;;;;;5137163;27;20023;-70
2021/07/03 13:27:46;;;;;;;2.47;1.70;;;;;;;;;;5118636;27;20502;-71
2021/07/03 13:30:13;;;;;;;1.88;1.77;;;;;;;;;;5137053;27;20027;-71
2021/07/03 13:32:40;;;;;;;2.88;2.13;;;;;;;;;;5137122;27;20019;-69
2021/07/03 13:35:06;;;;;;;6.15;2.17;;;;;;;;;;5136972;27;20023;-69
2021/07/03 13:37:32;;;;;;;2.25;2.05;;;;;;;;;;5136418;27;20047;-69
2021/07/03 13:40:00;;;;;;;2.53;1.70;;;;;;;;;;5135925;27;20387;-72
2021/07/03 13:42:26;;;;;;;3.05;2.13;;;;;;;;;;5116762;27;20098;-70
2021/07/03 13:44:52;;;;;;;1.98;1.88;;;;;;;;;;5136257;27;20080;-70
2021/07/03 13:47:18;;;;;;;2.67;1.90;;;;;;;;;;5136436;27;20110;-72
2021/07/03 13:49:45;;;;;;;2.35;2.13;;;;;;;;;;5136978;27;20099;-71
2021/07/03 13:52:11;;;;;;;2.72;1.70;;;;;;;;;;5118202;27;20031;-69
2021/07/03 13:54:37;;;;;;;2.30;1.80;;;;;;;;;;5136597;27;20058;-71
2021/07/03 13:57:03;;;;;;;2.22;2.05;;;;;;;;;;5136250;27;20105;-70
2021/07/03 13:59:30;;;;;;;5.85;2.00;;;;;;;;;;5136814;27;20033;-70
2021/07/03 14:01:56;;;;;;;5.82;2.22;;;;;;;;;;5137934;27;20023;-71
2021/07/03 14:04:22;;;;;;;3.80;1.90;;;;;;;;;;5118558;27;20106;-71
2021/07/03 14:06:48;;;;;;;2.10;2.00;;;;;;;;;;5136755;27;20072;-71
2021/07/03 14:09:14;;;;;;;4.72;2.08;;;;;;;;;;5118724;27;20015;-72
2021/07/03 14:11:41;;;;;;;3.60;1.90;;;;;;;;;;5118496;27;20443;-71
2021/07/03 14:14:07;;;;;;;2.25;1.83;;;;;;;;;;5118502;27;20145;-70
2021/07/03 14:16:33;;;;;;;4.82;2.10;;;;;;;;;;5118023;27;20020;-71
2021/07/03 14:19:00;;;;;;;4.95;2.58;;;;;;;;;;5135202;27;20019;-71
2021/07/03 14:21:26;;;;;;;2.30;2.20;;;;;;;;;;5135729;27;20122;-69
2021/07/03 14:23:52;;;;;;;2.20;2.00;;;;;;;;;;5136081;27;20099;-70
2021/07/03 14:26:19;;;;;;;5.97;1.92;;;;;;;;;;5117744;27;20490;-70
2021/07/03 14:28:45;;;;;;;1.77;1.67;;;;;;;;;;5135845;27;20023;-70
2021/07/03 14:31:14;;;;;;;6.30;2.00;;;;;;;;;;5135778;27;20042;-70
2021/07/03 14:33:40;;;;;;;1.80;1.70;;;;;;;;;;5135706;27;20479;-71
2021/07/03 14:36:07;;;;;;;2.42;2.22;;;;;;;;;;5135552;27;20451;-70
2021/07/03 14:38:33;;;;;;;2.03;1.92;;;;;;;;;;5135697;27;20026;-71
2021/07/03 14:41:00;;;;;;;6.50;2.20;;;;;;;;;;5117098;27;20114;-71
2021/07/03 14:43:26;;;;;;;2.75;1.80;;;;;;;;;;5135390;27;20023;-70
2021/07/03 14:45:52;;;;;;;3.95;2.20;;;;;;;;;;5135647;27;20464;-71